sensor_id;sensor_type;location;lat;lon;timestamp;pressure;altitude;pressure_sealevel;temperature;humidity
48216;BME280;34005;48.844;10.098;2023-01-29T00:01:28;97704.41;;;0.81;69.54
48216;BME280;34005;48.844;10.098;2023-01-29T00:03:56;97701.13;;;0.79;69.34
48216;BME280;34005;48.844;10.098;2023-01-29T00:06:24;97698.63;;;0.78;69.42
48216;BME280;34005;48.844;10.098;2023-01-29T00:08:51;97699.66;;;0.75;69.03
48216;BME280;34005;48.844;10.098;2023-01-29T00:11:20;97686.06;;;0.73;68.97
48216;BME280;34005;48.844;10.098;2023-01-29T00:13:49;97695.63;;;0.71;68.96
48216;BME280;34005;48.844;10.098;2023-01-29T00:16:17;97693.88;;;0.72;69.04
48216;BME280;34005;48.844;10.098;2023-01-29T00:18:45;97687.72;;;0.74;69.55
48216;BME280;34005;48.844;10.098;2023-01-29T00:21:14;97690.09;;;0.77;70.39
48216;BME280;34005;48.844;10.098;2023-01-29T00:23:43;97690.09;;;0.77;69.53
48216;BME280;34005;48.844;10.098;2023-01-29T00:26:11;97698.91;;;0.73;68.99
48216;BME280;34005;48.844;10.098;2023-01-29T00:28:40;97695.91;;;0.67;68.74
48216;BME280;34005;48.844;10.098;2023-01-29T00:31:08;97688.47;;;0.62;69.02
48216;BME280;34005;48.844;10.098;2023-01-29T00:33:36;97684.25;;;0.61;69.13
48216;BME280;34005;48.844;10.098;2023-01-29T00:36:04;97695.34;;;0.61;69.10
48216;BME280;34005;48.844;10.098;2023-01-29T00:38:33;97696.91;;;0.64;69.18
48216;BME280;34005;48.844;10.098;2023-01-29T00:41:05;97684.06;;;0.64;68.90
48216;BME280;34005;48.844;10.098;2023-01-29T00:43:52;97681.59;;;0.63;68.69
48216;BME280;34005;48.844;10.098;2023-01-29T00:46:37;97680.78;;;0.62;68.92
48216;BME280;34005;48.844;10.098;2023-01-29T00:49:05;97684.25;;;0.61;68.96
48216;BME280;34005;48.844;10.098;2023-01-29T00:51:33;97692.97;;;0.58;68.46
48216;BME280;34005;48.844;10.098;2023-01-29T00:54:01;97692.34;;;0.55;68.53
48216;BME280;34005;48.844;10.098;2023-01-29T00:56:29;97694.16;;;0.53;68.90
48216;BME280;34005;48.844;10.098;2023-01-29T00:58:58;97704.59;;;0.50;68.86
48216;BME280;34005;48.844;10.098;2023-01-29T01:01:26;97698.56;;;0.51;69.04
48216;BME280;34005;48.844;10.098;2023-01-29T01:04:12;97692.59;;;0.50;68.60
48216;BME280;34005;48.844;10.098;2023-01-29T01:06:41;97687.72;;;0.46;68.73
48216;BME280;34005;48.844;10.098;2023-01-29T01:09:09;97679.28;;;0.44;68.66
48216;BME280;34005;48.844;10.098;2023-01-29T01:11:54;97678.47;;;0.43;69.07
48216;BME280;34005;48.844;10.098;2023-01-29T01:14:23;97679.13;;;0.47;69.19
48216;BME280;34005;48.844;10.098;2023-01-29T01:16:51;97678.03;;;0.51;68.99
48216;BME280;34005;48.844;10.098;2023-01-29T01:19:18;97670.34;;;0.51;68.57
48216;BME280;34005;48.844;10.098;2023-01-29T01:21:46;97670.34;;;0.51;68.50
48216;BME280;34005;48.844;10.098;2023-01-29T01:24:13;97662.78;;;0.48;68.43
48216;BME280;34005;48.844;10.098;2023-01-29T01:26:41;97660.22;;;0.48;68.44
48216;BME280;34005;48.844;10.098;2023-01-29T01:29:09;97672.31;;;0.46;67.67
48216;BME280;34005;48.844;10.098;2023-01-29T01:31:38;97663.91;;;0.44;67.23
48216;BME280;34005;48.844;10.098;2023-01-29T01:34:05;97659.69;;;0.43;66.85
48216;BME280;34005;48.844;10.098;2023-01-29T01:36:33;97669.59;;;0.49;68.52
48216;BME280;34005;48.844;10.098;2023-01-29T01:39:00;97672.91;;;0.51;67.53
48216;BME280;34005;48.844;10.098;2023-01-29T01:41:28;97666.84;;;0.52;67.15
48216;BME280;34005;48.844;10.098;2023-01-29T01:43:57;97669.47;;;0.50;66.47
48216;BME280;34005;48.844;10.098;2023-01-29T01:46:27;97670.13;;;0.54;66.95
48216;BME280;34005;48.844;10.098;2023-01-29T01:48:58;97670.59;;;0.60;68.21
48216;BME280;34005;48.844;10.098;2023-01-29T01:51:29;97667.72;;;0.65;67.39
48216;BME280;34005;48.844;10.098;2023-01-29T01:54:01;97662.44;;;0.68;68.06
48216;BME280;34005;48.844;10.098;2023-01-29T01:56:33;97663.78;;;0.74;67.61
48216;BME280;34005;48.844;10.098;2023-01-29T01:59:07;97665.63;;;0.72;66.93
48216;BME280;34005;48.844;10.098;2023-01-29T02:01:36;97659.13;;;0.66;66.86
48216;BME280;34005;48.844;10.098;2023-01-29T02:04:10;97656.72;;;0.63;66.94
48216;BME280;34005;48.844;10.098;2023-01-29T02:06:58;97661.34;;;0.58;67.21
48216;BME280;34005;48.844;10.098;2023-01-29T02:09:48;97664.84;;;0.57;67.26
48216;BME280;34005;48.844;10.098;2023-01-29T02:12:19;97668.31;;;0.56;67.38
48216;BME280;34005;48.844;10.098;2023-01-29T02:14:47;97670.88;;;0.56;67.47
48216;BME280;34005;48.844;10.098;2023-01-29T02:17:17;97676.00;;;0.56;66.93
48216;BME280;34005;48.844;10.098;2023-01-29T02:19:56;97671.69;;;0.56;66.86
48216;BME280;34005;48.844;10.098;2023-01-29T02:22:41;97667.94;;;0.62;70.42
48216;BME280;34005;48.844;10.098;2023-01-29T02:25:33;97675.34;;;0.67;68.42
48216;BME280;34005;48.844;10.098;2023-01-29T02:28:15;97673.22;;;0.73;69.64
48216;BME280;34005;48.844;10.098;2023-01-29T02:30:52;97674.63;;;0.79;69.02
48216;BME280;34005;48.844;10.098;2023-01-29T02:33:27;97675.44;;;0.79;67.15
48216;BME280;34005;48.844;10.098;2023-01-29T02:36:03;97673.78;;;0.78;67.53
48216;BME280;34005;48.844;10.098;2023-01-29T02:38:40;97681.31;;;0.81;68.69
48216;BME280;34005;48.844;10.098;2023-01-29T02:41:14;97682.03;;;0.84;69.18
48216;BME280;34005;48.844;10.098;2023-01-29T02:43:46;97686.44;;;0.81;67.52
48216;BME280;34005;48.844;10.098;2023-01-29T02:46:17;97682.31;;;0.79;67.55
48216;BME280;34005;48.844;10.098;2023-01-29T02:48:54;97678.00;;;0.79;67.41
48216;BME280;34005;48.844;10.098;2023-01-29T02:51:30;97673.59;;;0.81;67.38
48216;BME280;34005;48.844;10.098;2023-01-29T02:54:03;97687.16;;;0.84;68.67
48216;BME280;34005;48.844;10.098;2023-01-29T02:56:36;97677.50;;;0.87;70.52
48216;BME280;34005;48.844;10.098;2023-01-29T02:59:08;97673.03;;;0.91;70.40
48216;BME280;34005;48.844;10.098;2023-01-29T03:01:42;97671.38;;;0.90;70.74
48216;BME280;34005;48.844;10.098;2023-01-29T03:04:14;97672.19;;;0.90;69.53
48216;BME280;34005;48.844;10.098;2023-01-29T03:06:47;97668.81;;;0.90;69.42
48216;BME280;34005;48.844;10.098;2023-01-29T03:09:20;97662.94;;;0.88;67.94
48216;BME280;34005;48.844;10.098;2023-01-29T03:11:52;97671.94;;;0.80;67.59
48216;BME280;34005;48.844;10.098;2023-01-29T03:14:29;97669.56;;;0.77;67.69
48216;BME280;34005;48.844;10.098;2023-01-29T03:17:29;97661.31;;;0.72;66.69
48216;BME280;34005;48.844;10.098;2023-01-29T03:20:01;97658.63;;;0.74;69.13
48216;BME280;34005;48.844;10.098;2023-01-29T03:22:34;97653.06;;;0.81;70.41
48216;BME280;34005;48.844;10.098;2023-01-29T03:25:05;97653.66;;;0.85;69.58
48216;BME280;34005;48.844;10.098;2023-01-29T03:27:54;97647.72;;;0.85;70.11
48216;BME280;34005;48.844;10.098;2023-01-29T03:30:45;97655.41;;;0.85;69.61
48216;BME280;34005;48.844;10.098;2023-01-29T03:33:38;97659.66;;;0.86;70.02
48216;BME280;34005;48.844;10.098;2023-01-29T03:36:12;97657.09;;;0.86;68.88
48216;BME280;34005;48.844;10.098;2023-01-29T03:38:41;97662.22;;;0.86;69.86
48216;BME280;34005;48.844;10.098;2023-01-29T03:41:13;97666.34;;;0.88;69.40
48216;BME280;34005;48.844;10.098;2023-01-29T03:43:50;97667.06;;;0.90;70.11
48216;BME280;34005;48.844;10.098;2023-01-29T03:46:24;97668.53;;;0.94;71.29
48216;BME280;34005;48.844;10.098;2023-01-29T03:48:58;97675.13;;;0.98;72.74
48216;BME280;34005;48.844;10.098;2023-01-29T03:51:31;97675.00;;;1.00;70.84
48216;BME280;34005;48.844;10.098;2023-01-29T03:54:06;97674.09;;;1.01;72.89
48216;BME280;34005;48.844;10.098;2023-01-29T03:56:43;97672.16;;;1.05;73.20
48216;BME280;34005;48.844;10.098;2023-01-29T03:59:34;97675.38;;;1.08;73.50
48216;BME280;34005;48.844;10.098;2023-01-29T04:02:10;97668.75;;;1.04;70.43
48216;BME280;34005;48.844;10.098;2023-01-29T04:04:39;97677.59;;;1.00;67.90
48216;BME280;34005;48.844;10.098;2023-01-29T04:07:11;97681.47;;;0.93;69.77
48216;BME280;34005;48.844;10.098;2023-01-29T04:09:45;97689.44;;;0.88;68.64
48216;BME280;34005;48.844;10.098;2023-01-29T04:12:17;97683.66;;;0.85;69.08
48216;BME280;34005;48.844;10.098;2023-01-29T04:14:47;97682.56;;;0.89;70.50
48216;BME280;34005;48.844;10.098;2023-01-29T04:17:20;97681.84;;;0.87;68.23
48216;BME280;34005;48.844;10.098;2023-01-29T04:19:49;97674.22;;;0.85;69.14
48216;BME280;34005;48.844;10.098;2023-01-29T04:22:19;97675.69;;;0.89;71.11
48216;BME280;34005;48.844;10.098;2023-01-29T04:24:49;97688.34;;;0.92;70.46
48216;BME280;34005;48.844;10.098;2023-01-29T04:27:25;97691.75;;;0.93;71.30
48216;BME280;34005;48.844;10.098;2023-01-29T04:30:06;97680.28;;;0.98;74.17
48216;BME280;34005;48.844;10.098;2023-01-29T04:32:51;97689.31;;;1.04;74.07
48216;BME280;34005;48.844;10.098;2023-01-29T04:35:28;97685.13;;;1.03;72.86
48216;BME280;34005;48.844;10.098;2023-01-29T04:38:06;97690.13;;;1.05;70.64
48216;BME280;34005;48.844;10.098;2023-01-29T04:40:46;97687.69;;;1.03;71.86
48216;BME280;34005;48.844;10.098;2023-01-29T04:43:23;97688.22;;;1.08;72.68
48216;BME280;34005;48.844;10.098;2023-01-29T04:46:04;97688.50;;;1.03;68.25
48216;BME280;34005;48.844;10.098;2023-01-29T04:48:44;97694.75;;;0.99;71.43
48216;BME280;34005;48.844;10.098;2023-01-29T04:51:20;97688.06;;;0.97;69.36
48216;BME280;34005;48.844;10.098;2023-01-29T04:53:50;97677.34;;;0.90;70.61
48216;BME280;34005;48.844;10.098;2023-01-29T04:56:28;97679.91;;;0.90;70.39
48216;BME280;34005;48.844;10.098;2023-01-29T04:59:00;97683.28;;;0.91;71.20
48216;BME280;34005;48.844;10.098;2023-01-29T05:01:32;97672.72;;;0.95;71.53
48216;BME280;34005;48.844;10.098;2023-01-29T05:04:05;97668.25;;;0.99;73.09
48216;BME280;34005;48.844;10.098;2023-01-29T05:06:34;97669.88;;;1.00;71.13
48216;BME280;34005;48.844;10.098;2023-01-29T05:09:03;97672.66;;;0.97;70.32
48216;BME280;34005;48.844;10.098;2023-01-29T05:11:31;97664.94;;;0.97;71.06
48216;BME280;34005;48.844;10.098;2023-01-29T05:14:01;97667.41;;;0.98;72.36
48216;BME280;34005;48.844;10.098;2023-01-29T05:16:33;97666.50;;;0.99;72.15
48216;BME280;34005;48.844;10.098;2023-01-29T05:19:11;97673.66;;;0.94;70.48
48216;BME280;34005;48.844;10.098;2023-01-29T05:21:42;97677.06;;;0.95;71.60
48216;BME280;34005;48.844;10.098;2023-01-29T05:24:12;97676.13;;;0.96;71.88
48216;BME280;34005;48.844;10.098;2023-01-29T05:26:41;97676.97;;;0.96;71.06
48216;BME280;34005;48.844;10.098;2023-01-29T05:29:26;97686.41;;;0.96;72.36
48216;BME280;34005;48.844;10.098;2023-01-29T05:31:54;97687.34;;;0.95;70.67
48216;BME280;34005;48.844;10.098;2023-01-29T05:34:23;97683.28;;;0.91;71.80
48216;BME280;34005;48.844;10.098;2023-01-29T05:36:50;97685.13;;;0.89;70.74
48216;BME280;34005;48.844;10.098;2023-01-29T05:39:18;97685.13;;;0.89;71.11
48216;BME280;34005;48.844;10.098;2023-01-29T05:41:46;97686.88;;;0.88;69.86
48216;BME280;34005;48.844;10.098;2023-01-29T05:44:13;97690.28;;;0.89;69.64
48216;BME280;34005;48.844;10.098;2023-01-29T05:46:41;97688.81;;;0.85;69.25
48216;BME280;34005;48.844;10.098;2023-01-29T05:49:09;97685.50;;;0.82;70.13
48216;BME280;34005;48.844;10.098;2023-01-29T05:51:38;97679.91;;;0.76;68.44
48216;BME280;34005;48.844;10.098;2023-01-29T05:54:05;97671.03;;;0.67;68.18
48216;BME280;34005;48.844;10.098;2023-01-29T05:56:33;97664.72;;;0.58;69.37
48216;BME280;34005;48.844;10.098;2023-01-29T05:59:00;97645.94;;;0.58;71.09
48216;BME280;34005;48.844;10.098;2023-01-29T06:01:28;97648.69;;;0.55;69.18
48216;BME280;34005;48.844;10.098;2023-01-29T06:03:55;97641.97;;;0.52;69.11
48216;BME280;34005;48.844;10.098;2023-01-29T06:06:23;97635.00;;;0.54;70.77
48216;BME280;34005;48.844;10.098;2023-01-29T06:08:52;97638.94;;;0.60;72.15
48216;BME280;34005;48.844;10.098;2023-01-29T06:11:19;97629.34;;;0.64;72.77
48216;BME280;34005;48.844;10.098;2023-01-29T06:13:47;97625.75;;;0.66;71.89
48216;BME280;34005;48.844;10.098;2023-01-29T06:16:14;97624.19;;;0.64;69.62
48216;BME280;34005;48.844;10.098;2023-01-29T06:18:42;97625.19;;;0.61;70.75
48216;BME280;34005;48.844;10.098;2023-01-29T06:21:12;97629.22;;;0.65;73.10
48216;BME280;34005;48.844;10.098;2023-01-29T06:23:40;97630.75;;;0.68;72.35
48216;BME280;34005;48.844;10.098;2023-01-29T06:26:10;97635.47;;;0.61;69.13
48216;BME280;34005;48.844;10.098;2023-01-29T06:28:38;97635.00;;;0.54;70.51
48216;BME280;34005;48.844;10.098;2023-01-29T06:31:07;97634.38;;;0.51;71.57
48216;BME280;34005;48.844;10.098;2023-01-29T06:33:54;97643.72;;;0.52;71.26
48216;BME280;34005;48.844;10.098;2023-01-29T06:36:22;97651.50;;;0.50;71.63
48216;BME280;34005;48.844;10.098;2023-01-29T06:38:49;97657.56;;;0.49;70.55
48216;BME280;34005;48.844;10.098;2023-01-29T06:41:19;97656.38;;;0.40;68.54
48216;BME280;34005;48.844;10.098;2023-01-29T06:43:50;97666.28;;;0.32;68.89
48216;BME280;34005;48.844;10.098;2023-01-29T06:46:18;97657.84;;;0.30;69.22
48216;BME280;34005;48.844;10.098;2023-01-29T06:48:46;97660.25;;;0.33;70.66
48216;BME280;34005;48.844;10.098;2023-01-29T06:51:13;97662.63;;;0.36;70.78
48216;BME280;34005;48.844;10.098;2023-01-29T06:53:41;97675.28;;;0.39;71.43
48216;BME280;34005;48.844;10.098;2023-01-29T06:56:11;97670.78;;;0.43;72.40
48216;BME280;34005;48.844;10.098;2023-01-29T06:58:40;97669.69;;;0.47;73.47
48216;BME280;34005;48.844;10.098;2023-01-29T07:01:10;97671.22;;;0.50;72.49
48216;BME280;34005;48.844;10.098;2023-01-29T07:03:58;97672.63;;;0.55;72.38
48216;BME280;34005;48.844;10.098;2023-01-29T07:06:26;97680.22;;;0.57;72.67
48216;BME280;34005;48.844;10.098;2023-01-29T07:08:54;97683.41;;;0.60;73.66
48216;BME280;34005;48.844;10.098;2023-01-29T07:11:22;97684.00;;;0.66;73.99
48216;BME280;34005;48.844;10.098;2023-01-29T07:13:51;97685.44;;;0.70;74.31
48216;BME280;34005;48.844;10.098;2023-01-29T07:16:18;97677.63;;;0.71;74.15
48216;BME280;34005;48.844;10.098;2023-01-29T07:18:46;97682.69;;;0.73;73.73
48216;BME280;34005;48.844;10.098;2023-01-29T07:21:14;97687.72;;;0.74;73.62
48216;BME280;34005;48.844;10.098;2023-01-29T07:23:41;97686.00;;;0.75;73.90
48216;BME280;34005;48.844;10.098;2023-01-29T07:26:09;97689.56;;;0.72;72.68
48216;BME280;34005;48.844;10.098;2023-01-29T07:28:38;97687.91;;;0.71;72.53
48216;BME280;34005;48.844;10.098;2023-01-29T07:31:08;97692.31;;;0.69;71.39
48216;BME280;34005;48.844;10.098;2023-01-29T07:33:37;97681.31;;;0.67;71.02
48216;BME280;34005;48.844;10.098;2023-01-29T07:36:06;97682.13;;;0.68;72.50
48216;BME280;34005;48.844;10.098;2023-01-29T07:38:34;97683.78;;;0.69;71.58
48216;BME280;34005;48.844;10.098;2023-01-29T07:41:02;97687.00;;;0.72;72.14
48216;BME280;34005;48.844;10.098;2023-01-29T07:43:30;97689.38;;;0.75;73.34
48216;BME280;34005;48.844;10.098;2023-01-29T07:46:00;97691.75;;;0.78;73.78
48216;BME280;34005;48.844;10.098;2023-01-29T07:48:29;97683.22;;;0.78;71.71
48216;BME280;34005;48.844;10.098;2023-01-29T07:50:57;97686.72;;;0.77;72.08
48216;BME280;34005;48.844;10.098;2023-01-29T07:53:25;97696.78;;;0.80;71.64
48216;BME280;34005;48.844;10.098;2023-01-29T07:55:53;97694.44;;;0.77;70.47
48216;BME280;34005;48.844;10.098;2023-01-29T07:58:21;97696.16;;;0.76;72.69
48216;BME280;34005;48.844;10.098;2023-01-29T08:00:48;97697.81;;;0.77;72.66
48216;BME280;34005;48.844;10.098;2023-01-29T08:03:17;97701.94;;;0.80;73.65
48216;BME280;34005;48.844;10.098;2023-01-29T08:05:47;97700.91;;;0.82;72.46
48216;BME280;34005;48.844;10.098;2023-01-29T08:08:15;97701.56;;;0.86;73.40
48216;BME280;34005;48.844;10.098;2023-01-29T08:10:44;97704.06;;;0.88;73.03
48216;BME280;34005;48.844;10.098;2023-01-29T08:13:12;97697.06;;;0.90;73.69
48216;BME280;34005;48.844;10.098;2023-01-29T08:15:41;97703.13;;;0.89;73.59
48216;BME280;34005;48.844;10.098;2023-01-29T08:18:10;97711.19;;;0.82;71.12
48216;BME280;34005;48.844;10.098;2023-01-29T08:20:38;97702.75;;;0.80;70.66
48216;BME280;34005;48.844;10.098;2023-01-29T08:23:14;97703.59;;;0.81;71.39
48216;BME280;34005;48.844;10.098;2023-01-29T08:25:42;97707.16;;;0.78;69.57
48216;BME280;34005;48.844;10.098;2023-01-29T08:28:10;97706.41;;;0.76;69.31
48216;BME280;34005;48.844;10.098;2023-01-29T08:30:38;97715.88;;;0.76;68.67
48216;BME280;34005;48.844;10.098;2023-01-29T08:33:05;97714.13;;;0.76;70.74
48216;BME280;34005;48.844;10.098;2023-01-29T08:35:33;97719.81;;;0.81;71.59
48216;BME280;34005;48.844;10.098;2023-01-29T08:38:02;97717.88;;;0.85;71.84
48216;BME280;34005;48.844;10.098;2023-01-29T08:40:33;97728.88;;;0.87;71.49
48216;BME280;34005;48.844;10.098;2023-01-29T08:43:02;97728.81;;;0.89;70.49
48216;BME280;34005;48.844;10.098;2023-01-29T08:45:34;97723.75;;;0.87;69.05
48216;BME280;34005;48.844;10.098;2023-01-29T08:48:03;97735.03;;;0.85;68.32
48216;BME280;34005;48.844;10.098;2023-01-29T08:50:31;97732.31;;;0.88;71.10
48216;BME280;34005;48.844;10.098;2023-01-29T08:53:01;97738.19;;;0.90;71.40
48216;BME280;34005;48.844;10.098;2023-01-29T08:55:29;97744.13;;;0.90;72.17
48216;BME280;34005;48.844;10.098;2023-01-29T08:57:58;97742.28;;;0.92;70.00
48216;BME280;34005;48.844;10.098;2023-01-29T09:00:25;97743.41;;;0.88;70.29
48216;BME280;34005;48.844;10.098;2023-01-29T09:02:53;97749.44;;;0.87;69.82
48216;BME280;34005;48.844;10.098;2023-01-29T09:05:20;97746.25;;;0.84;68.14
48216;BME280;34005;48.844;10.098;2023-01-29T09:07:48;97748.25;;;0.78;67.44
48216;BME280;34005;48.844;10.098;2023-01-29T09:10:18;97745.88;;;0.75;68.52
48216;BME280;34005;48.844;10.098;2023-01-29T09:12:46;97748.38;;;0.77;69.00
48216;BME280;34005;48.844;10.098;2023-01-29T09:15:15;97745.06;;;0.75;67.78
48216;BME280;34005;48.844;10.098;2023-01-29T09:17:43;97751.91;;;0.74;68.28
48216;BME280;34005;48.844;10.098;2023-01-29T09:20:11;97750.28;;;0.73;68.67
48216;BME280;34005;48.844;10.098;2023-01-29T09:22:38;97757.97;;;0.73;67.65
48216;BME280;34005;48.844;10.098;2023-01-29T09:25:07;97756.88;;;0.77;67.71
48216;BME280;34005;48.844;10.098;2023-01-29T09:27:36;97752.47;;;0.79;66.77
48216;BME280;34005;48.844;10.098;2023-01-29T09:30:05;97749.91;;;0.79;65.67
48216;BME280;34005;48.844;10.098;2023-01-29T09:32:34;97746.25;;;0.84;67.76
48216;BME280;34005;48.844;10.098;2023-01-29T09:35:19;97741.56;;;0.90;69.05
48216;BME280;34005;48.844;10.098;2023-01-29T09:37:47;97751.56;;;0.95;69.34
48216;BME280;34005;48.844;10.098;2023-01-29T09:40:23;97753.19;;;0.96;66.88
48216;BME280;34005;48.844;10.098;2023-01-29T09:42:56;97745.50;;;0.96;66.28
48216;BME280;34005;48.844;10.098;2023-01-29T09:45:27;97746.22;;;0.98;67.94
48216;BME280;34005;48.844;10.098;2023-01-29T09:47:58;97748.63;;;1.01;69.06
48216;BME280;34005;48.844;10.098;2023-01-29T09:50:30;97737.94;;;1.07;69.49
48216;BME280;34005;48.844;10.098;2023-01-29T09:53:02;97746.22;;;1.12;70.33
48216;BME280;34005;48.844;10.098;2023-01-29T09:55:32;97745.84;;;1.18;70.12
48216;BME280;34005;48.844;10.098;2023-01-29T09:58:04;97729.69;;;1.16;66.73
48216;BME280;34005;48.844;10.098;2023-01-29T10:00:44;97721.25;;;1.14;67.65
48216;BME280;34005;48.844;10.098;2023-01-29T10:03:26;97716.09;;;1.14;65.61
48216;BME280;34005;48.844;10.098;2023-01-29T10:06:08;97712.81;;;1.12;66.32
48216;BME280;34005;48.844;10.098;2023-01-29T10:09:08;97713.63;;;1.13;69.29
48216;BME280;34005;48.844;10.098;2023-01-29T10:11:45;97708.09;;;1.19;70.48
48216;BME280;34005;48.844;10.098;2023-01-29T10:14:21;97705.03;;;1.27;70.95
48216;BME280;34005;48.844;10.098;2023-01-29T10:17:05;97687.78;;;1.29;67.33
48216;BME280;34005;48.844;10.098;2023-01-29T10:19:48;97690.06;;;1.33;66.32
48216;BME280;34005;48.844;10.098;2023-01-29T10:22:30;97675.47;;;1.34;65.81
48216;BME280;34005;48.844;10.098;2023-01-29T10:25:01;97676.22;;;1.36;68.64
48216;BME280;34005;48.844;10.098;2023-01-29T10:27:31;97683.50;;;1.42;67.86
48216;BME280;34005;48.844;10.098;2023-01-29T10:30:02;97673.13;;;1.43;65.93
48216;BME280;34005;48.844;10.098;2023-01-29T10:32:36;97664.22;;;1.49;66.99
48216;BME280;34005;48.844;10.098;2023-01-29T10:35:12;97666.19;;;1.58;66.99
48216;BME280;34005;48.844;10.098;2023-01-29T10:37:44;97657.88;;;1.68;67.86
48216;BME280;34005;48.844;10.098;2023-01-29T10:40:18;97667.75;;;1.74;66.98
48216;BME280;34005;48.844;10.098;2023-01-29T10:42:52;97667.97;;;1.83;68.32
48216;BME280;34005;48.844;10.098;2023-01-29T10:45:29;97674.47;;;1.89;66.37
48216;BME280;34005;48.844;10.098;2023-01-29T10:48:15;97681.97;;;1.92;67.75
48216;BME280;34005;48.844;10.098;2023-01-29T10:50:54;97691.06;;;1.98;68.89
48216;BME280;34005;48.844;10.098;2023-01-29T10:53:44;97682.81;;;2.05;69.49
48216;BME280;34005;48.844;10.098;2023-01-29T10:56:27;97670.47;;;2.11;66.66
48216;BME280;34005;48.844;10.098;2023-01-29T10:59:02;97663.47;;;2.13;66.94
48216;BME280;34005;48.844;10.098;2023-01-29T11:01:30;97666.78;;;2.15;67.46
48216;BME280;34005;48.844;10.098;2023-01-29T11:04:00;97674.28;;;2.18;68.56
48216;BME280;34005;48.844;10.098;2023-01-29T11:06:31;97669.63;;;2.23;69.53
48216;BME280;34005;48.844;10.098;2023-01-29T11:09:04;97662.84;;;2.22;66.12
48216;BME280;34005;48.844;10.098;2023-01-29T11:11:39;97665.53;;;2.20;67.46
48216;BME280;34005;48.844;10.098;2023-01-29T11:14:11;97664.50;;;2.23;68.14
48216;BME280;34005;48.844;10.098;2023-01-29T11:16:42;97664.28;;;2.26;67.17
48216;BME280;34005;48.844;10.098;2023-01-29T11:19:11;97664.06;;;2.29;66.81
48216;BME280;34005;48.844;10.098;2023-01-29T11:21:56;97655.22;;;2.33;65.90
48216;BME280;34005;48.844;10.098;2023-01-29T11:24:24;97664.47;;;2.36;65.77
48216;BME280;34005;48.844;10.098;2023-01-29T11:26:54;97663.88;;;2.32;64.50
48216;BME280;34005;48.844;10.098;2023-01-29T11:29:31;97651.94;;;2.31;64.85
48216;BME280;34005;48.844;10.098;2023-01-29T11:32:02;97649.16;;;2.34;66.90
48216;BME280;34005;48.844;10.098;2023-01-29T11:34:31;97651.50;;;2.37;66.76
48216;BME280;34005;48.844;10.098;2023-01-29T11:37:01;97651.50;;;2.37;67.18
48216;BME280;34005;48.844;10.098;2023-01-29T11:39:30;97649.03;;;2.36;66.69
48216;BME280;34005;48.844;10.098;2023-01-29T11:42:00;97643.88;;;2.36;64.95
48216;BME280;34005;48.844;10.098;2023-01-29T11:44:30;97646.47;;;2.36;65.60
48216;BME280;34005;48.844;10.098;2023-01-29T11:47:10;97641.44;;;2.34;63.36
48216;BME280;34005;48.844;10.098;2023-01-29T11:49:39;97640.50;;;2.35;66.18
48216;BME280;34005;48.844;10.098;2023-01-29T11:52:13;97642.03;;;2.38;66.76
48216;BME280;34005;48.844;10.098;2023-01-29T11:54:44;97629.06;;;2.39;67.27
48216;BME280;34005;48.844;10.098;2023-01-29T11:57:22;97624.81;;;2.38;66.82
48216;BME280;34005;48.844;10.098;2023-01-29T11:59:51;97619.81;;;2.37;66.72
48216;BME280;34005;48.844;10.098;2023-01-29T12:02:24;97614.84;;;2.34;63.63
48216;BME280;34005;48.844;10.098;2023-01-29T12:04:56;97614.25;;;2.30;64.00
48216;BME280;34005;48.844;10.098;2023-01-29T12:07:26;97605.16;;;2.37;66.15
48216;BME280;34005;48.844;10.098;2023-01-29T12:09:56;97593.81;;;2.53;66.09
48216;BME280;34005;48.844;10.098;2023-01-29T12:12:30;97584.84;;;2.58;66.05
48216;BME280;34005;48.844;10.098;2023-01-29T12:17:51;97568.81;;;2.66;66.67
48216;BME280;34005;48.844;10.098;2023-01-29T12:20:24;97558.31;;;2.69;63.90
48216;BME280;34005;48.844;10.098;2023-01-29T12:23:02;97555.66;;;2.82;66.58
48216;BME280;34005;48.844;10.098;2023-01-29T12:25:40;97554.91;;;2.93;65.18
48216;BME280;34005;48.844;10.098;2023-01-29T12:28:33;97551.41;;;2.94;65.25
48216;BME280;34005;48.844;10.098;2023-01-29T12:31:12;97543.41;;;2.85;60.69
48216;BME280;34005;48.844;10.098;2023-01-29T12:33:48;97541.38;;;2.78;63.58
48216;BME280;34005;48.844;10.098;2023-01-29T12:36:22;97534.56;;;2.77;63.84
48216;BME280;34005;48.844;10.098;2023-01-29T12:38:53;97526.94;;;2.75;63.45
48216;BME280;34005;48.844;10.098;2023-01-29T12:41:29;97529.75;;;2.72;61.82
48216;BME280;34005;48.844;10.098;2023-01-29T12:44:03;97519.56;;;2.71;63.44
48216;BME280;34005;48.844;10.098;2023-01-29T12:46:37;97519.56;;;2.71;63.82
48216;BME280;34005;48.844;10.098;2023-01-29T12:49:10;97524.69;;;2.71;64.89
48216;BME280;34005;48.844;10.098;2023-01-29T12:51:47;97527.41;;;2.69;64.81
48216;BME280;34005;48.844;10.098;2023-01-29T12:54:20;97516.72;;;2.62;64.36
48216;BME280;34005;48.844;10.098;2023-01-29T12:56:52;97512.47;;;2.61;64.54
48216;BME280;34005;48.844;10.098;2023-01-29T12:59:27;97510.38;;;2.66;66.11
48216;BME280;34005;48.844;10.098;2023-01-29T13:01:59;97500.94;;;2.67;63.71
48216;BME280;34005;48.844;10.098;2023-01-29T13:04:35;97501.66;;;2.69;65.37
48216;BME280;34005;48.844;10.098;2023-01-29T13:07:10;97494.50;;;2.73;65.60
48216;BME280;34005;48.844;10.098;2023-01-29T13:09:43;97495.53;;;2.70;65.72
48216;BME280;34005;48.844;10.098;2023-01-29T13:12:14;97506.09;;;2.67;65.84
48216;BME280;34005;48.844;10.098;2023-01-29T13:14:46;97505.56;;;2.62;63.91
48216;BME280;34005;48.844;10.098;2023-01-29T13:17:20;97503.94;;;2.61;63.20
48216;BME280;34005;48.844;10.098;2023-01-29T13:19:51;97499.00;;;2.58;64.44
48216;BME280;34005;48.844;10.098;2023-01-29T13:22:23;97499.84;;;2.58;64.67
48216;BME280;34005;48.844;10.098;2023-01-29T13:24:53;97499.22;;;2.55;62.56
48216;BME280;34005;48.844;10.098;2023-01-29T13:27:32;97500.97;;;2.54;65.48
48216;BME280;34005;48.844;10.098;2023-01-29T13:30:01;97494.69;;;2.58;65.49